Time;durP1;ratioP1;P1;durP2;ratioP2;P2;SDS_P1;SDS_P2;PMS_P1;PMS_P2;Temp;Humidity;BMP_temperature;BMP_pressure;BME280_temperature;BME280_humidity;BME280_pressure;Samples;Min_cycle;Max_cycle;Signal;HPM_P1;HPM_P2
2021/07/28 00:01:19;;;;;;;13.80;8.60;;;20.10;93.90;;;;;;4990995;28;20438;-75
2021/07/28 00:03:45;;;;;;;20.47;10.37;;;20.20;94.00;;;;;;4990308;28;20938;-76
2021/07/28 00:06:19;;;;;;;15.27;9.20;;;20.20;93.30;;;;;;4988038;28;21035;-76
2021/07/28 00:08:45;;;;;;;14.77;8.20;;;20.20;93.30;;;;;;4989580;28;20434;-75
2021/07/28 00:11:12;;;;;;;17.07;9.63;;;20.20;93.40;;;;;;4986276;28;20460;-75
2021/07/28 00:13:38;;;;;;;17.27;8.43;;;20.20;93.40;;;;;;4991286;28;20210;-74
2021/07/28 00:16:09;;;;;;;13.37;8.10;;;20.20;93.40;;;;;;4987165;28;20430;-77
2021/07/28 00:23:53;;;;;;;16.47;9.80;;;20.20;93.60;;;;;;4990821;28;20536;-75
2021/07/28 00:26:19;;;;;;;17.23;9.10;;;20.20;93.90;;;;;;4991498;28;20529;-74
2021/07/28 00:28:45;;;;;;;17.53;9.57;;;20.20;93.50;;;;;;4989034;28;20268;-75
2021/07/28 00:31:10;;;;;;;16.90;9.00;;;20.10;93.40;;;;;;4982365;28;20214;-74
2021/07/28 00:33:36;;;;;;;17.77;8.93;;;20.10;93.80;;;;;;4988346;28;20214;-74
2021/07/28 00:36:02;;;;;;;16.60;9.53;;;20.00;93.60;;;;;;4991076;28;20193;-74
2021/07/28 00:38:27;;;;;;;17.00;9.67;;;19.90;94.20;;;;;;4989353;28;20206;-75
2021/07/28 00:40:53;;;;;;;14.27;8.60;;;19.90;94.50;;;;;;4991471;28;20186;-74
2021/07/28 00:43:24;;;;;;;22.40;9.03;;;19.80;94.70;;;;;;4987788;28;20628;-74
2021/07/28 00:45:50;;;;;;;15.00;9.10;;;19.80;94.80;;;;;;4991195;28;20237;-74
2021/07/28 00:48:16;;;;;;;17.60;9.20;;;19.80;95.20;;;;;;4990211;28;20441;-74
2021/07/28 00:50:43;;;;;;;17.70;10.60;;;19.70;95.10;;;;;;4985271;28;20421;-74
2021/07/28 00:53:19;;;;;;;18.10;10.67;;;19.60;95.50;;;;;;4985506;28;20206;-75
2021/07/28 00:55:49;;;;;;;17.80;9.67;;;19.70;96.00;;;;;;4987973;28;20453;-74
2021/07/28 00:58:17;;;;;;;18.43;9.20;;;19.80;96.00;;;;;;4983254;28;20557;-74
2021/07/28 01:00:43;;;;;;;12.47;7.93;;;19.80;95.60;;;;;;4985394;28;20425;-74
2021/07/28 01:03:09;;;;;;;14.80;8.70;;;19.90;95.60;;;;;;4983174;28;20944;-74
2021/07/28 01:05:35;;;;;;;14.30;7.77;;;19.90;95.20;;;;;;4984716;28;20434;-74
2021/07/28 01:08:01;;;;;;;11.97;8.00;;;19.90;95.10;;;;;;4987246;28;20451;-75
2021/07/28 01:10:27;;;;;;;13.10;8.20;;;19.90;94.90;;;;;;4984018;28;20503;-76
2021/07/28 01:12:54;;;;;;;14.67;8.50;;;19.90;95.10;;;;;;4984251;28;20470;-74
2021/07/28 01:15:32;;;;;;;14.30;8.33;;;20.00;95.20;;;;;;4989187;28;20218;-74
2021/07/28 01:18:02;;;;;;;19.93;9.73;;;20.00;95.00;;;;;;4980703;28;20438;-74
2021/07/28 01:20:40;;;;;;;14.00;9.30;;;19.90;94.70;;;;;;4989373;28;20426;-74
2021/07/28 01:23:26;;;;;;;12.60;8.00;;;19.90;94.50;;;;;;4987431;28;20429;-74
2021/07/28 01:25:53;;;;;;;14.27;8.90;;;19.80;94.80;;;;;;4983926;28;20425;-74
2021/07/28 01:28:20;;;;;;;13.73;9.03;;;19.70;95.10;;;;;;4988201;28;20456;-74
2021/07/28 01:30:57;;;;;;;13.90;8.77;;;19.60;95.20;;;;;;4981667;28;20434;-74
2021/07/28 01:33:22;;;;;;;14.77;9.43;;;19.60;95.50;;;;;;4987165;28;20488;-75
2021/07/28 01:35:48;;;;;;;13.27;8.53;;;19.70;95.50;;;;;;4985109;28;20812;-73
2021/07/28 01:38:14;;;;;;;13.97;8.80;;;19.80;95.80;;;;;;4988694;28;20261;-73
2021/07/28 01:40:40;;;;;;;12.50;8.50;;;19.80;95.70;;;;;;4985676;28;20576;-73
2021/07/28 01:43:14;;;;;;;15.07;8.70;;;19.80;95.40;;;;;;4987088;28;21241;-75
2021/07/28 01:45:41;;;;;;;14.20;8.77;;;19.80;95.30;;;;;;4985336;28;20218;-75
2021/07/28 01:48:08;;;;;;;13.63;8.43;;;19.70;95.10;;;;;;4986248;28;20480;-73
2021/07/28 01:50:33;;;;;;;14.63;8.20;;;19.70;94.70;;;;;;4990463;28;20635;-73
2021/07/28 01:53:03;;;;;;;16.90;9.70;;;19.70;95.00;;;;;;4984526;28;20502;-77
2021/07/28 01:55:29;;;;;;;16.87;9.40;;;19.70;95.00;;;;;;4985034;28;20536;-74
2021/07/28 01:57:56;;;;;;;12.20;8.50;;;19.70;95.10;;;;;;4989381;28;20784;-73
2021/07/28 02:00:22;;;;;;;14.97;8.20;;;19.70;95.00;;;;;;5000875;28;20457;-73
2021/07/28 02:02:48;;;;;;;13.43;8.03;;;19.70;95.10;;;;;;4995841;28;20649;-74
2021/07/28 02:05:14;;;;;;;13.67;8.80;;;19.70;94.90;;;;;;4980278;28;20562;-75
2021/07/28 02:07:40;;;;;;;14.20;7.93;;;19.70;94.30;;;;;;4987542;28;20458;-74
2021/07/28 02:10:06;;;;;;;12.83;7.87;;;19.70;94.60;;;;;;4982884;28;20789;-74
2021/07/28 02:12:32;;;;;;;12.63;7.90;;;19.60;94.10;;;;;;4988387;28;20219;-73
2021/07/28 02:14:57;;;;;;;13.00;7.90;;;19.50;94.30;;;;;;4985220;28;20453;-74
2021/07/28 02:17:23;;;;;;;11.43;6.90;;;19.40;94.60;;;;;;4985117;28;20434;-74
2021/07/28 02:19:49;;;;;;;15.00;8.47;;;19.40;94.80;;;;;;4984901;28;20192;-75
2021/07/28 02:22:15;;;;;;;13.23;8.60;;;19.40;95.30;;;;;;4990180;28;20213;-74
2021/07/28 02:24:41;;;;;;;12.67;7.40;;;19.50;95.40;;;;;;4988779;28;20186;-74
2021/07/28 02:27:08;;;;;;;15.60;7.70;;;19.50;95.30;;;;;;4986896;28;20240;-74
2021/07/28 02:29:34;;;;;;;10.73;7.40;;;19.50;95.00;;;;;;4990015;28;20433;-75
2021/07/28 02:32:02;;;;;;;12.80;7.50;;;19.50;94.40;;;;;;4986767;28;20433;-76
2021/07/28 02:34:30;;;;;;;11.10;7.40;;;19.40;93.60;;;;;;4987522;28;20982;-74
2021/07/28 02:36:55;;;;;;;10.70;6.60;;;19.30;94.00;;;;;;4993241;28;20443;-74
2021/07/28 02:39:21;;;;;;;11.10;6.73;;;19.20;94.10;;;;;;4992255;28;20435;-74
2021/07/28 02:41:47;;;;;;;10.43;6.47;;;19.20;93.40;;;;;;4985258;28;20190;-73
2021/07/28 02:44:12;;;;;;;12.53;6.73;;;19.10;93.40;;;;;;4990531;28;20248;-74
2021/07/28 02:46:38;;;;;;;18.10;7.40;;;19.20;93.30;;;;;;4993350;28;20209;-74
2021/07/28 02:49:04;;;;;;;9.23;7.17;;;19.10;93.20;;;;;;4989100;28;20188;-75
2021/07/28 02:51:30;;;;;;;10.77;6.67;;;19.10;93.20;;;;;;4990382;28;20195;-74
2021/07/28 02:53:55;;;;;;;7.60;5.60;;;19.10;92.90;;;;;;4988298;28;20628;-75
2021/07/28 02:56:21;;;;;;;14.93;6.40;;;19.10;93.10;;;;;;4988650;28;20187;-74
2021/07/28 02:58:47;;;;;;;15.50;6.80;;;19.00;93.30;;;;;;4992654;28;20198;-74
2021/07/28 03:01:13;;;;;;;9.60;5.77;;;19.10;93.30;;;;;;4989166;28;20267;-74
2021/07/28 03:03:38;;;;;;;11.60;6.83;;;19.10;93.30;;;;;;4983863;28;20187;-74
2021/07/28 03:06:04;;;;;;;10.20;6.87;;;19.10;93.10;;;;;;4987590;28;20198;-74
2021/07/28 03:08:30;;;;;;;12.03;6.20;;;19.10;93.40;;;;;;4990627;28;20233;-74
2021/07/28 03:10:56;;;;;;;12.00;7.00;;;19.00;93.60;;;;;;4993534;28;20261;-74
2021/07/28 03:13:21;;;;;;;11.83;6.83;;;19.10;93.60;;;;;;4991685;28;20253;-76
2021/07/28 03:15:50;;;;;;;11.13;6.63;;;19.10;93.50;;;;;;4993314;28;20232;-74
2021/07/28 03:18:16;;;;;;;8.83;6.57;;;19.00;93.90;;;;;;4993791;28;20200;-75
2021/07/28 03:20:43;;;;;;;11.00;6.30;;;19.00;93.80;;;;;;4991184;28;20530;-74
2021/07/28 03:23:09;;;;;;;11.07;6.37;;;19.00;94.00;;;;;;4990466;28;20432;-73
2021/07/28 03:25:35;;;;;;;9.73;6.30;;;19.00;94.20;;;;;;4991680;28;20435;-75
2021/07/28 03:28:00;;;;;;;13.30;7.10;;;19.00;94.10;;;;;;4989247;28;20207;-74
2021/07/28 03:30:26;;;;;;;13.00;6.87;;;19.00;94.30;;;;;;4987993;28;20647;-75
2021/07/28 03:32:52;;;;;;;8.17;6.30;;;19.00;94.60;;;;;;4990641;28;20282;-76
2021/07/28 03:35:18;;;;;;;10.37;6.70;;;19.00;94.70;;;;;;4991559;28;20208;-75
2021/07/28 03:37:43;;;;;;;9.83;6.40;;;18.90;95.10;;;;;;4993802;28;20674;-75
2021/07/28 03:40:10;;;;;;;10.80;6.50;;;19.00;95.30;;;;;;4987789;28;20422;-75
2021/07/28 03:42:35;;;;;;;14.83;7.43;;;19.00;95.40;;;;;;4993413;28;20194;-75
2021/07/28 03:45:01;;;;;;;13.10;6.90;;;19.00;95.40;;;;;;4989287;28;20460;-74
2021/07/28 03:47:27;;;;;;;11.73;6.30;;;19.00;95.30;;;;;;4987055;28;20581;-75
2021/07/28 03:49:53;;;;;;;11.97;7.20;;;19.00;95.60;;;;;;4985340;28;20189;-74
2021/07/28 03:52:19;;;;;;;10.90;7.20;;;19.00;95.80;;;;;;4993132;28;20472;-76
2021/07/28 03:54:45;;;;;;;12.43;6.30;;;19.10;95.70;;;;;;4991416;28;20188;-76
2021/07/28 03:57:12;;;;;;;13.00;6.90;;;19.10;95.30;;;;;;4990682;28;20465;-75
2021/07/28 03:59:38;;;;;;;13.47;6.70;;;19.20;94.70;;;;;;4991733;28;20484;-74
2021/07/28 04:02:04;;;;;;;17.77;7.67;;;19.20;94.80;;;;;;4985394;28;20440;-74
2021/07/28 04:04:30;;;;;;;10.77;6.40;;;19.20;95.00;;;;;;4989794;28;20508;-74
2021/07/28 04:06:56;;;;;;;12.50;6.93;;;19.10;95.00;;;;;;4992989;28;20589;-74
2021/07/28 04:09:21;;;;;;;12.43;7.00;;;19.10;95.00;;;;;;4988065;28;20972;-74
2021/07/28 04:11:47;;;;;;;13.40;7.47;;;19.20;94.80;;;;;;4993064;28;20183;-74
2021/07/28 04:14:13;;;;;;;12.70;6.93;;;19.10;94.80;;;;;;4986355;28;20186;-74
2021/07/28 04:16:38;;;;;;;11.90;7.27;;;19.20;94.80;;;;;;4989766;28;20292;-75
2021/07/28 04:19:04;;;;;;;11.30;6.17;;;19.20;94.90;;;;;;4983318;28;20184;-75
2021/07/28 04:21:31;;;;;;;8.83;6.30;;;19.20;94.90;;;;;;4986449;28;20196;-74
2021/07/28 04:23:56;;;;;;;12.20;6.47;;;19.20;94.80;;;;;;4980606;28;20185;-74
2021/07/28 04:26:22;;;;;;;12.80;7.77;;;19.20;94.70;;;;;;4983097;28;20434;-75
2021/07/28 04:28:48;;;;;;;11.20;6.67;;;19.20;94.70;;;;;;4988603;28;20183;-74
2021/07/28 04:31:14;;;;;;;13.07;6.40;;;19.20;94.80;;;;;;4985123;28;20242;-75
2021/07/28 04:33:39;;;;;;;12.60;6.90;;;19.20;94.70;;;;;;5003901;28;20210;-76
2021/07/28 04:36:05;;;;;;;11.97;7.50;;;19.20;94.50;;;;;;4996611;28;20189;-75
2021/07/28 04:38:31;;;;;;;10.83;6.63;;;19.20;94.60;;;;;;4992019;28;20201;-76
2021/07/28 04:40:57;;;;;;;13.90;7.27;;;19.10;94.80;;;;;;4993308;28;20178;-76
2021/07/28 04:43:22;;;;;;;12.43;7.13;;;19.20;95.40;;;;;;4992639;28;20186;-75
2021/07/28 04:46:00;;;;;;;13.93;7.60;;;19.20;95.30;;;;;;4993098;28;20658;-74
2021/07/28 04:48:27;;;;;;;12.00;6.90;;;19.20;95.20;;;;;;4989034;28;20209;-75
2021/07/28 04:50:54;;;;;;;11.80;7.20;;;19.30;95.30;;;;;;4991812;28;20522;-75
2021/07/28 04:53:19;;;;;;;9.93;6.50;;;19.40;95.40;;;;;;4991683;28;20966;-74
2021/07/28 04:55:52;;;;;;;13.43;7.20;;;19.40;95.20;;;;;;4992531;28;20422;-74
2021/07/28 04:58:19;;;;;;;11.53;6.47;;;19.50;94.80;;;;;;4985038;28;20219;-75
2021/07/28 05:00:45;;;;;;;12.50;7.30;;;19.50;94.50;;;;;;4988147;28;20423;-74
2021/07/28 05:03:10;;;;;;;10.23;6.30;;;19.60;94.40;;;;;;4984295;28;20433;-75
2021/07/28 05:05:36;;;;;;;10.83;7.17;;;19.70;94.50;;;;;;4990526;28;20455;-75
2021/07/28 05:08:02;;;;;;;12.77;7.17;;;19.60;93.90;;;;;;4992231;28;20198;-75
2021/07/28 05:10:28;;;;;;;10.90;7.27;;;19.60;93.30;;;;;;4991826;28;20693;-73
2021/07/28 05:12:53;;;;;;;12.10;7.40;;;19.60;93.20;;;;;;4991664;28;21059;-76
2021/07/28 05:15:19;;;;;;;11.43;7.10;;;19.60;93.60;;;;;;4991755;28;20208;-74
2021/07/28 05:17:45;;;;;;;11.93;7.10;;;19.60;93.60;;;;;;4991901;28;20305;-75
2021/07/28 05:20:11;;;;;;;14.40;7.50;;;19.60;93.90;;;;;;4992364;28;20189;-74
2021/07/28 05:22:37;;;;;;;10.03;6.60;;;19.70;93.70;;;;;;4993906;28;20265;-75
2021/07/28 05:25:03;;;;;;;14.70;8.00;;;19.60;93.60;;;;;;4992435;28;20522;-75
2021/07/28 05:27:29;;;;;;;12.30;7.37;;;19.60;93.60;;;;;;4992061;28;20237;-74
2021/07/28 05:29:55;;;;;;;11.33;6.47;;;19.70;94.10;;;;;;4991781;28;20473;-74
2021/07/28 05:32:22;;;;;;;13.10;7.33;;;19.70;94.30;;;;;;4991007;28;20276;-75
2021/07/28 05:34:51;;;;;;;11.60;7.37;;;19.80;94.20;;;;;;4990156;28;20840;-75
2021/07/28 05:37:18;;;;;;;10.57;6.50;;;19.80;94.30;;;;;;4990188;28;20445;-75
2021/07/28 05:39:43;;;;;;;13.07;7.60;;;19.90;94.00;;;;;;4987644;28;20837;-75
2021/07/28 05:42:10;;;;;;;10.93;7.23;;;19.90;93.70;;;;;;4988923;28;20621;-75
2021/07/28 05:44:35;;;;;;;9.87;7.10;;;20.00;93.40;;;;;;4991477;28;20190;-75
2021/07/28 05:47:01;;;;;;;12.30;6.50;;;20.00;92.60;;;;;;4992130;28;20964;-74
2021/07/28 05:49:28;;;;;;;15.17;6.33;;;20.10;91.60;;;;;;4992423;28;20561;-75
2021/07/28 05:51:54;;;;;;;11.00;6.20;;;20.10;91.00;;;;;;4991742;28;20202;-75
2021/07/28 05:54:20;;;;;;;9.67;6.10;;;20.00;91.00;;;;;;4991067;28;20422;-74
2021/07/28 05:56:46;;;;;;;13.23;6.93;;;19.80;90.10;;;;;;4994934;28;20970;-76
2021/07/28 05:59:12;;;;;;;13.13;7.00;;;19.70;90.80;;;;;;4995708;28;20421;-76
2021/07/28 06:01:37;;;;;;;8.77;5.93;;;19.70;91.50;;;;;;4993824;28;20203;-73
2021/07/28 06:04:03;;;;;;;10.70;6.57;;;19.70;91.70;;;;;;4991111;28;20279;-74
2021/07/28 06:06:30;;;;;;;11.43;6.83;;;19.70;90.80;;;;;;4991157;28;20233;-75
2021/07/28 06:08:56;;;;;;;16.27;7.33;;;19.80;90.70;;;;;;4998208;28;20429;-75
2021/07/28 06:11:22;;;;;;;14.30;6.80;;;19.90;90.50;;;;;;4996906;28;20201;-75
2021/07/28 06:13:48;;;;;;;10.43;6.07;;;19.90;89.90;;;;;;4996522;28;20213;-74
2021/07/28 06:16:14;;;;;;;12.07;5.70;;;19.90;90.10;;;;;;4997277;28;20418;-74
2021/07/28 06:18:40;;;;;;;10.30;6.10;;;19.90;88.70;;;;;;4991667;28;20425;-75
2021/07/28 06:21:05;;;;;;;12.03;6.50;;;19.90;88.10;;;;;;4998519;28;20590;-74
2021/07/28 06:23:31;;;;;;;11.47;6.30;;;19.90;87.70;;;;;;4998038;28;20189;-74
2021/07/28 06:25:57;;;;;;;8.70;5.33;;;19.90;87.70;;;;;;4999056;28;20186;-74
2021/07/28 06:28:23;;;;;;;10.97;6.17;;;19.80;87.60;;;;;;4998556;28;20209;-74
2021/07/28 06:30:53;;;;;;;11.30;6.40;;;19.80;87.60;;;;;;4994175;28;20496;-74
2021/07/28 06:33:19;;;;;;;10.77;6.00;;;19.70;89.00;;;;;;4994486;28;20501;-73
2021/07/28 06:35:50;;;;;;;9.60;5.97;;;19.70;90.10;;;;;;4988252;28;20415;-74
2021/07/28 06:38:17;;;;;;;11.90;6.63;;;19.60;90.10;;;;;;4995165;28;20479;-75
2021/07/28 06:40:43;;;;;;;10.47;6.67;;;19.50;89.70;;;;;;4996346;28;20429;-74
2021/07/28 06:43:10;;;;;;;10.87;6.43;;;19.40;90.40;;;;;;4995928;28;20448;-75
2021/07/28 06:45:36;;;;;;;8.63;5.73;;;19.30;91.20;;;;;;4997778;28;20417;-74
2021/07/28 06:48:02;;;;;;;9.60;6.30;;;19.20;91.40;;;;;;4997280;28;20528;-74
2021/07/28 06:50:28;;;;;;;8.80;5.93;;;19.10;91.80;;;;;;4997734;28;20524;-74
2021/07/28 06:52:53;;;;;;;10.03;6.30;;;19.00;92.10;;;;;;4996720;28;20468;-74
2021/07/28 06:55:19;;;;;;;14.27;7.33;;;18.90;92.40;;;;;;4995789;28;20275;-74
2021/07/28 06:57:45;;;;;;;12.00;6.40;;;18.90;93.00;;;;;;4997328;28;20218;-74
2021/07/28 07:00:11;;;;;;;11.83;6.60;;;18.90;93.70;;;;;;4994049;28;20181;-74
2021/07/28 07:02:37;;;;;;;14.43;6.63;;;18.80;93.90;;;;;;4989301;28;20270;-75
2021/07/28 07:05:04;;;;;;;10.70;6.43;;;18.70;94.10;;;;;;4990492;28;20519;-77
2021/07/28 07:07:30;;;;;;;11.63;7.10;;;18.60;94.80;;;;;;4997455;28;20209;-74
2021/07/28 07:09:55;;;;;;;12.47;7.20;;;18.50;95.00;;;;;;4992389;28;20427;-75
2021/07/28 07:12:22;;;;;;;11.90;6.87;;;18.50;95.30;;;;;;5013009;28;20243;-75
2021/07/28 07:14:48;;;;;;;11.10;6.87;;;18.50;95.70;;;;;;4989092;28;20219;-74
2021/07/28 07:17:14;;;;;;;16.63;7.50;;;18.60;95.20;;;;;;4988929;28;20842;-74
2021/07/28 07:19:40;;;;;;;15.50;7.40;;;18.60;95.00;;;;;;4988242;28;20225;-76
2021/07/28 07:22:06;;;;;;;12.50;7.57;;;18.70;94.60;;;;;;4989120;28;20434;-74
2021/07/28 07:24:33;;;;;;;14.37;7.53;;;18.70;94.80;;;;;;4985043;28;20431;-76
2021/07/28 07:26:58;;;;;;;13.13;7.13;;;18.70;94.90;;;;;;4988462;28;20802;-75
2021/07/28 07:29:24;;;;;;;10.10;6.20;;;18.80;94.60;;;;;;4989002;28;20439;-74
2021/07/28 07:31:50;;;;;;;11.00;7.03;;;18.80;94.00;;;;;;4993208;28;20191;-75
2021/07/28 07:34:16;;;;;;;15.53;7.77;;;18.80;94.10;;;;;;4986582;28;20220;-75
2021/07/28 07:36:41;;;;;;;16.37;7.53;;;18.80;93.70;;;;;;4986331;28;20687;-74
2021/07/28 07:39:08;;;;;;;11.63;7.10;;;18.80;93.40;;;;;;4992156;28;20185;-74
2021/07/28 07:41:34;;;;;;;14.47;6.40;;;18.80;93.20;;;;;;4992322;28;20271;-74
2021/07/28 07:44:01;;;;;;;16.27;7.50;;;18.90;93.00;;;;;;4992253;28;20573;-73
2021/07/28 07:46:27;;;;;;;12.93;6.43;;;18.90;93.00;;;;;;4993763;28;20435;-74
2021/07/28 07:48:54;;;;;;;12.73;7.23;;;18.90;93.00;;;;;;4993793;28;20423;-75
2021/07/28 07:51:20;;;;;;;16.57;7.77;;;19.00;93.00;;;;;;4992724;28;20498;-74
2021/07/28 07:53:46;;;;;;;18.10;7.67;;;18.90;92.40;;;;;;4992208;28;20466;-75
2021/07/28 07:56:12;;;;;;;11.33;6.77;;;18.80;92.50;;;;;;4993385;28;20422;-75
2021/07/28 07:58:38;;;;;;;14.17;6.60;;;18.90;93.00;;;;;;4994212;28;20475;-75
2021/07/28 08:01:12;;;;;;;11.03;6.80;;;18.90;92.80;;;;;;4994464;28;20840;-76
2021/07/28 08:03:39;;;;;;;12.83;6.60;;;18.90;92.20;;;;;;4986111;28;20427;-73
2021/07/28 08:06:05;;;;;;;13.00;6.83;;;19.00;92.30;;;;;;4991554;28;20424;-74
2021/07/28 08:08:32;;;;;;;9.10;6.30;;;19.00;92.20;;;;;;4988084;28;20447;-73
2021/07/28 08:10:59;;;;;;;11.70;7.00;;;19.00;92.00;;;;;;4991294;28;20514;-74
2021/07/28 08:13:26;;;;;;;11.30;6.10;;;19.00;92.60;;;;;;4991966;28;21002;-73
2021/07/28 08:15:51;;;;;;;12.90;7.40;;;19.10;92.30;;;;;;4992619;28;20417;-75
2021/07/28 08:18:19;;;;;;;10.10;6.60;;;19.20;92.40;;;;;;4987113;28;20456;-77
2021/07/28 08:20:45;;;;;;;10.50;6.97;;;19.20;91.60;;;;;;4992988;28;20233;-74
2021/07/28 08:23:11;;;;;;;11.63;6.43;;;19.20;91.80;;;;;;4986706;28;20426;-73
2021/07/28 08:25:37;;;;;;;11.20;6.30;;;19.10;91.50;;;;;;4996258;28;20432;-73
2021/07/28 08:28:03;;;;;;;14.13;6.93;;;19.10;91.60;;;;;;4994987;28;20527;-74
2021/07/28 08:30:29;;;;;;;14.33;7.43;;;19.10;91.50;;;;;;4994243;28;20905;-74
2021/07/28 08:32:54;;;;;;;13.07;7.30;;;19.10;91.20;;;;;;4994311;28;20469;-74
2021/07/28 08:35:21;;;;;;;12.97;7.00;;;19.10;91.10;;;;;;4993899;28;20662;-78
2021/07/28 08:37:46;;;;;;;10.57;6.30;;;19.10;91.00;;;;;;4992177;28;20202;-77
2021/07/28 08:40:15;;;;;;;10.60;6.37;;;19.20;90.60;;;;;;4989413;28;20474;-74
2021/07/28 08:42:44;;;;;;;10.30;6.53;;;19.20;90.90;;;;;;4993309;28;20215;-75
2021/07/28 08:45:13;;;;;;;13.63;6.73;;;19.30;91.10;;;;;;4993453;28;20463;-74
2021/07/28 08:47:39;;;;;;;10.70;6.90;;;19.40;90.40;;;;;;4993667;28;20445;-77
2021/07/28 08:50:09;;;;;;;11.97;6.60;;;19.40;90.40;;;;;;4985346;28;20430;-75
2021/07/28 08:52:37;;;;;;;9.70;6.47;;;19.60;90.50;;;;;;4992893;28;21004;-77
2021/07/28 08:55:04;;;;;;;10.40;6.20;;;19.60;90.10;;;;;;4993091;28;20418;-74
2021/07/28 08:57:33;;;;;;;11.77;6.40;;;19.60;88.70;;;;;;4985920;28;20457;-75
2021/07/28 08:59:59;;;;;;;9.90;5.97;;;19.70;88.70;;;;;;4992575;28;20936;-74
2021/07/28 09:02:26;;;;;;;14.83;7.20;;;19.80;88.70;;;;;;4993356;28;20432;-74
2021/07/28 09:04:52;;;;;;;11.60;6.80;;;19.80;87.30;;;;;;4991638;28;20883;-73
2021/07/28 09:07:22;;;;;;;9.43;6.10;;;19.90;87.60;;;;;;4991881;28;20453;-77
2021/07/28 09:09:58;;;;;;;12.07;6.20;;;20.00;87.10;;;;;;4993116;28;20414;-74
2021/07/28 09:12:32;;;;;;;9.40;6.00;;;20.10;86.30;;;;;;4993053;28;20467;-75
2021/07/28 09:15:04;;;;;;;10.03;6.40;;;20.10;85.30;;;;;;4988672;28;20492;-74
2021/07/28 09:17:31;;;;;;;12.10;6.40;;;20.30;85.30;;;;;;4977484;28;20448;-75
2021/07/28 09:19:58;;;;;;;10.50;6.10;;;20.50;84.30;;;;;;4991951;28;20413;-75
2021/07/28 09:22:31;;;;;;;9.63;5.63;;;20.70;83.40;;;;;;4993009;28;20516;-75
2021/07/28 09:25:21;;;;;;;9.33;6.50;;;20.90;81.80;;;;;;4993062;28;20423;-74
2021/07/28 09:27:49;;;;;;;7.70;5.27;;;21.00;80.80;;;;;;4987335;28;20449;-75
2021/07/28 09:30:17;;;;;;;8.93;6.10;;;20.90;79.90;;;;;;4992802;28;20514;-74
2021/07/28 09:33:02;;;;;;;7.27;5.23;;;20.90;81.20;;;;;;4990203;28;21250;-75
2021/07/28 09:35:47;;;;;;;13.47;6.77;;;21.00;80.60;;;;;;4993047;28;20438;-73
2021/07/28 09:38:37;;;;;;;7.33;5.30;;;21.00;80.20;;;;;;4984010;28;20435;-78
2021/07/28 09:41:12;;;;;;;9.63;5.30;;;20.90;80.00;;;;;;4988172;28;20509;-75
2021/07/28 09:43:46;;;;;;;10.83;5.30;;;21.10;80.80;;;;;;4984277;28;20426;-73
2021/07/28 09:46:54;;;;;;;8.13;5.43;;;21.20;78.90;;;;;;4989790;28;20427;-75
2021/07/28 09:49:20;;;;;;;9.90;4.97;;;21.30;79.90;;;;;;4977176;28;20950;-74
2021/07/28 09:51:46;;;;;;;9.50;5.77;;;21.40;80.30;;;;;;4986734;28;20432;-73
2021/07/28 09:54:13;;;;;;;13.37;5.93;;;21.30;80.00;;;;;;4993250;28;20615;-75
2021/07/28 09:56:45;;;;;;;10.33;5.60;;;21.40;79.90;;;;;;5003993;28;20460;-76
2021/07/28 09:59:11;;;;;;;13.73;6.87;;;21.50;81.40;;;;;;5003881;28;20977;-75
2021/07/28 10:01:37;;;;;;;11.13;6.73;;;21.90;80.50;;;;;;4989192;28;20762;-75
2021/07/28 10:04:05;;;;;;;9.83;5.30;;;21.90;78.70;;;;;;4985301;28;20468;-80
2021/07/28 10:06:40;;;;;;;10.87;5.97;;;21.90;78.70;;;;;;4987786;28;20544;-77
2021/07/28 10:09:09;;;;;;;11.63;5.60;;;22.20;77.70;;;;;;4986137;28;20503;-75
2021/07/28 10:11:37;;;;;;;8.23;5.00;;;22.40;76.50;;;;;;4989542;28;20490;-74
2021/07/28 10:14:04;;;;;;;8.37;5.23;;;22.70;76.80;;;;;;4987819;28;21001;-75
2021/07/28 10:16:31;;;;;;;8.37;5.20;;;23.00;75.40;;;;;;4986256;28;21216;-76
2021/07/28 10:18:59;;;;;;;8.17;5.33;;;23.20;70.40;;;;;;4992161;28;20417;-75
2021/07/28 10:21:25;;;;;;;7.90;4.83;;;23.00;71.10;;;;;;4988510;28;20420;-74
2021/07/28 10:23:52;;;;;;;8.00;5.27;;;22.70;72.60;;;;;;4991264;28;20433;-74
2021/07/28 10:26:18;;;;;;;10.27;5.50;;;22.40;73.20;;;;;;4983812;28;20511;-73
2021/07/28 10:28:47;;;;;;;6.80;5.00;;;22.20;73.20;;;;;;4990702;28;20970;-78
2021/07/28 10:31:17;;;;;;;9.50;5.10;;;22.00;73.60;;;;;;4985396;28;20791;-75
2021/07/28 10:33:54;;;;;;;10.60;5.73;;;22.00;74.80;;;;;;4983129;28;20485;-74
2021/07/28 10:36:46;;;;;;;7.73;4.90;;;21.90;73.90;;;;;;4986739;28;20422;-73
2021/07/28 10:39:12;;;;;;;8.37;5.00;;;21.70;75.20;;;;;;4989125;28;20490;-74
2021/07/28 10:41:44;;;;;;;10.97;5.67;;;21.50;76.10;;;;;;4991341;28;20628;-75
2021/07/28 10:44:18;;;;;;;8.77;5.23;;;21.30;76.20;;;;;;4990839;28;20419;-74
2021/07/28 10:46:54;;;;;;;8.57;5.30;;;21.30;77.40;;;;;;4993271;28;20995;-75
2021/07/28 10:49:35;;;;;;;9.37;5.03;;;21.40;77.40;;;;;;4995304;28;20463;-74
2021/07/28 10:52:02;;;;;;;9.67;5.17;;;21.50;75.80;;;;;;4994059;28;20435;-74
2021/07/28 10:54:53;;;;;;;8.80;5.47;;;21.60;77.10;;;;;;5007295;28;20517;-72
2021/07/28 10:57:45;;;;;;;11.90;5.60;;;21.80;74.90;;;;;;5008850;28;20475;-75
2021/07/28 11:00:16;;;;;;;6.80;4.70;;;21.90;74.80;;;;;;5007537;28;20415;-74
2021/07/28 11:02:57;;;;;;;12.47;5.23;;;21.80;75.40;;;;;;5004505;28;20458;-74
2021/07/28 11:05:29;;;;;;;6.77;4.43;;;21.80;75.40;;;;;;4993106;28;20423;-75
2021/07/28 11:08:07;;;;;;;8.70;5.13;;;21.70;75.50;;;;;;4990020;28;20446;-75
2021/07/28 11:10:34;;;;;;;6.27;4.50;;;21.90;75.20;;;;;;4982690;28;20423;-75
2021/07/28 11:13:05;;;;;;;7.93;5.13;;;22.00;73.60;;;;;;4987046;28;20467;-74
2021/07/28 11:15:30;;;;;;;12.33;6.20;;;22.10;73.90;;;;;;4982617;28;20927;-74
2021/07/28 11:17:57;;;;;;;9.20;5.80;;;22.10;74.20;;;;;;4983009;28;20440;-74
2021/07/28 11:20:29;;;;;;;6.73;4.83;;;22.20;73.70;;;;;;4987523;28;20203;-75
2021/07/28 11:23:17;;;;;;;10.13;5.70;;;22.30;73.00;;;;;;4990803;28;20424;-74
2021/07/28 11:25:42;;;;;;;7.80;4.97;;;22.40;73.70;;;;;;4985939;28;20431;-75
2021/07/28 11:28:08;;;;;;;9.47;5.00;;;22.40;72.60;;;;;;4986560;28;20449;-74
2021/07/28 11:30:34;;;;;;;8.17;5.40;;;22.40;72.60;;;;;;4993075;28;20427;-75
2021/07/28 11:33:16;;;;;;;6.63;4.90;;;22.60;72.60;;;;;;4985216;28;20584;-75
2021/07/28 11:35:44;;;;;;;9.60;5.20;;;23.20;71.60;;;;;;4989846;28;20415;-75
2021/07/28 11:38:17;;;;;;;8.57;4.53;;;23.40;68.00;;;;;;4990724;28;20451;-75
2021/07/28 11:40:57;;;;;;;8.60;5.20;;;23.70;67.90;;;;;;4993347;28;20475;-73
2021/07/28 11:43:32;;;;;;;7.07;5.00;;;24.30;65.70;;;;;;4991419;28;20456;-74
2021/07/28 11:46:05;;;;;;;8.57;4.70;;;24.30;65.30;;;;;;4993828;28;20497;-75
2021/07/28 11:48:38;;;;;;;7.50;4.93;;;24.50;65.60;;;;;;4986418;28;20444;-73
2021/07/28 11:51:31;;;;;;;6.73;4.47;;;24.80;64.80;;;;;;4989380;28;20751;-74
2021/07/28 11:54:06;;;;;;;8.70;5.00;;;25.10;64.40;;;;;;4992655;28;20836;-74
2021/07/28 11:56:32;;;;;;;9.90;5.40;;;25.20;63.40;;;;;;4986020;28;20468;-74
2021/07/28 11:58:58;;;;;;;7.30;4.87;;;25.30;62.80;;;;;;4985477;28;20424;-74
2021/07/28 12:01:33;;;;;;;5.70;4.20;;;24.70;62.90;;;;;;4988785;28;20217;-76
2021/07/28 12:04:04;;;;;;;9.57;5.00;;;24.70;63.80;;;;;;4987623;28;20456;-74
2021/07/28 12:06:38;;;;;;;16.10;5.70;;;25.00;63.50;;;;;;4990374;28;20425;-75
2021/07/28 12:09:15;;;;;;;6.37;4.90;;;25.50;62.60;;;;;;4986566;28;20419;-74
2021/07/28 12:11:55;;;;;;;9.17;4.93;;;25.90;60.40;;;;;;4988450;28;20445;-73
2021/07/28 12:14:34;;;;;;;10.50;4.80;;;25.10;61.50;;;;;;4989423;28;20466;-73
2021/07/28 12:17:01;;;;;;;6.67;4.67;;;24.80;62.00;;;;;;4987015;28;20468;-73
2021/07/28 12:19:31;;;;;;;8.63;5.60;;;24.80;62.20;;;;;;4990994;28;21048;-74
2021/07/28 12:22:13;;;;;;;16.63;5.80;;;25.10;62.30;;;;;;4990562;28;20417;-74
2021/07/28 12:24:43;;;;;;;8.77;4.80;;;25.20;61.50;;;;;;4985343;28;20428;-75
2021/07/28 12:27:27;;;;;;;7.57;4.90;;;25.40;62.00;;;;;;4989471;28;20453;-74
2021/07/28 12:30:09;;;;;;;6.87;4.50;;;25.50;60.00;;;;;;4986125;28;20517;-74
2021/07/28 12:32:45;;;;;;;6.80;4.53;;;25.30;59.90;;;;;;4984574;28;20469;-75
2021/07/28 12:35:14;;;;;;;5.93;4.30;;;25.70;59.60;;;;;;4989313;28;20422;-74
2021/07/28 12:37:43;;;;;;;7.07;4.73;;;26.00;59.10;;;;;;4991468;28;20536;-74
2021/07/28 12:40:09;;;;;;;8.67;4.73;;;26.20;58.50;;;;;;4990561;28;20431;-75
2021/07/28 12:42:37;;;;;;;6.93;5.30;;;26.00;58.00;;;;;;4991679;28;20777;-74
2021/07/28 12:45:10;;;;;;;10.20;4.67;;;25.80;58.50;;;;;;4992877;28;20422;-73
2021/07/28 12:47:36;;;;;;;6.10;4.50;;;25.60;59.10;;;;;;4994309;28;20456;-75
2021/07/28 12:50:02;;;;;;;7.87;4.40;;;25.80;58.40;;;;;;5001306;28;20777;-74
2021/07/28 12:52:28;;;;;;;8.73;4.73;;;26.20;58.10;;;;;;4993833;28;20189;-74